CPA853 KSEA-VHHH
Flight info
| Callsign | CPA853 |
|---|---|
| Flight time | N/A |
| Altitude | 34000 |
| Route | SEA1 SEA J523 TOU DCT DOLFF DCT PRETY DCT 50N140W 51N150W 52N160W DCT ROBBN DCT LYYLE DCT 49N170E 44N160E/N0493F360 DCT KALNA OTR5 ADNAP Y807 NOGIX/N0488F380 Y807 LALID Y804 INUBO Y50 ELNIS Y564 IBENO Y56 TOHME Y54 TURFY Y24 KOSHI Y50 IGMON A1 DRAKE DCT APU A1 ELATO V522 ABBEY |
| Aircraft | A35K/H-SDE2E3GHIJ3J4J5LM1ORWXY/LB1D1 |
Departure
| Time | 2026-05-08 06:29 |
|---|---|
| Airport | Seattle–Tacoma International Airport (KSEA) |
Arrival
| Time | N/A |
|---|---|
| Airport | Hong Kong International Airport (VHHH) |
| Time | Latitude | Longitude | Altitude | Speed | Heading |
|---|---|---|---|---|---|
| 2026-05-08 06:06 | 47.43938 | -122.30256 | 393 ft | 0 kts | 152° |
| 2026-05-08 06:14 | 47.43952 | -122.30266 | 393 ft | 4 kts | 147° |
| 2026-05-08 06:14 | 47.43973 | -122.30290 | 393 ft | 4 kts | 135° |
| 2026-05-08 06:14 | 47.43990 | -122.30320 | 393 ft | 4 kts | 116° |
| 2026-05-08 06:14 | 47.43996 | -122.30355 | 393 ft | 3 kts | 79° |
| 2026-05-08 06:15 | 47.43996 | -122.30360 | 392 ft | 0 kts | 77° |
| 2026-05-08 06:18 | 47.43996 | -122.30356 | 393 ft | 1 kts | 77° |
| 2026-05-08 06:18 | 47.44005 | -122.30306 | 393 ft | 9 kts | 75° |
| 2026-05-08 06:19 | 47.44035 | -122.30234 | 388 ft | 7 kts | 56° |
| 2026-05-08 06:19 | 47.44047 | -122.30172 | 394 ft | 7 kts | 91° |
| 2026-05-08 06:19 | 47.44023 | -122.30073 | 393 ft | 13 kts | 130° |
| 2026-05-08 06:19 | 47.43947 | -122.29966 | 390 ft | 16 kts | 150° |
| 2026-05-08 06:20 | 47.43826 | -122.29973 | 393 ft | 18 kts | 189° |
| 2026-05-08 06:20 | 47.43756 | -122.30107 | 389 ft | 18 kts | 258° |
| 2026-05-08 06:20 | 47.43728 | -122.30293 | 387 ft | 19 kts | 257° |
| 2026-05-08 06:20 | 47.43722 | -122.30477 | 386 ft | 16 kts | 273° |
| 2026-05-08 06:21 | 47.43796 | -122.30546 | 387 ft | 13 kts | 1° |
| 2026-05-08 06:21 | 47.43880 | -122.30544 | 389 ft | 12 kts | 0° |
| 2026-05-08 06:21 | 47.43961 | -122.30544 | 390 ft | 12 kts | 0° |
| 2026-05-08 06:21 | 47.44045 | -122.30543 | 391 ft | 12 kts | 0° |
| 2026-05-08 06:22 | 47.44124 | -122.30542 | 393 ft | 11 kts | 0° |
| 2026-05-08 06:22 | 47.44205 | -122.30541 | 393 ft | 12 kts | 360° |
| 2026-05-08 06:22 | 47.44301 | -122.30566 | 396 ft | 16 kts | 333° |
| 2026-05-08 06:22 | 47.44414 | -122.30632 | 399 ft | 18 kts | 356° |
| 2026-05-08 06:23 | 47.44531 | -122.30632 | 403 ft | 16 kts | 0° |
| 2026-05-08 06:23 | 47.44633 | -122.30630 | 401 ft | 14 kts | 360° |
| 2026-05-08 06:23 | 47.44746 | -122.30630 | 408 ft | 19 kts | 1° |
| 2026-05-08 06:23 | 47.44899 | -122.30629 | 410 ft | 24 kts | 0° |
| 2026-05-08 06:24 | 47.45081 | -122.30627 | 411 ft | 27 kts | 0° |
| 2026-05-08 06:24 | 47.45254 | -122.30625 | 417 ft | 23 kts | 0° |
| 2026-05-08 06:24 | 47.45398 | -122.30623 | 420 ft | 19 kts | 0° |
| 2026-05-08 06:24 | 47.45480 | -122.30623 | 424 ft | 17 kts | 0° |
| 2026-05-08 06:25 | 47.45587 | -122.30622 | 432 ft | 14 kts | 0° |
| 2026-05-08 06:25 | 47.45678 | -122.30621 | 430 ft | 12 kts | 0° |
| 2026-05-08 06:25 | 47.45763 | -122.30621 | 429 ft | 13 kts | 0° |
| 2026-05-08 06:25 | 47.45862 | -122.30619 | 431 ft | 15 kts | 0° |
| 2026-05-08 06:26 | 47.45972 | -122.30618 | 446 ft | 16 kts | 0° |
| 2026-05-08 06:26 | 47.46094 | -122.30618 | 447 ft | 19 kts | 0° |
| 2026-05-08 06:26 | 47.46233 | -122.30616 | 447 ft | 21 kts | 359° |
| 2026-05-08 06:26 | 47.46355 | -122.30632 | 449 ft | 14 kts | 329° |
| 2026-05-08 06:27 | 47.46373 | -122.30716 | 448 ft | 7 kts | 250° |
| 2026-05-08 06:27 | 47.46344 | -122.30770 | 448 ft | 8 kts | 212° |
| 2026-05-08 06:27 | 47.46290 | -122.30778 | 447 ft | 4 kts | 181° |
| 2026-05-08 06:28 | 47.46162 | -122.30778 | 432 ft | 45 kts | 180° |
| 2026-05-08 06:28 | 47.45663 | -122.30782 | 426 ft | 97 kts | 180° |
| 2026-05-08 06:28 | 47.44830 | -122.30790 | 409 ft | 142 kts | 180° |
| 2026-05-08 06:29 | 47.43716 | -122.30783 | 509 ft | 166 kts | 178° |
| 2026-05-08 06:29 | 47.42614 | -122.30724 | 1065 ft | 156 kts | 176° |
| 2026-05-08 06:29 | 47.41527 | -122.30630 | 1480 ft | 156 kts | 175° |
| 2026-05-08 06:29 | 47.40418 | -122.30644 | 1722 ft | 165 kts | 181° |
| 2026-05-08 06:30 | 47.39322 | -122.31069 | 2050 ft | 161 kts | 212° |
| 2026-05-08 06:30 | 47.38510 | -122.32219 | 2276 ft | 170 kts | 237° |
| 2026-05-08 06:30 | 47.38334 | -122.33980 | 2359 ft | 187 kts | 287° |
| 2026-05-08 06:30 | 47.38957 | -122.35720 | 2577 ft | 198 kts | 300° |
| 2026-05-08 06:31 | 47.39736 | -122.37489 | 2799 ft | 213 kts | 303° |
| 2026-05-08 06:31 | 47.40596 | -122.39379 | 2985 ft | 230 kts | 302° |
| 2026-05-08 06:31 | 47.41482 | -122.41439 | 3235 ft | 245 kts | 301° |
| 2026-05-08 06:31 | 47.42393 | -122.43646 | 3579 ft | 255 kts | 298° |
| 2026-05-08 06:32 | 47.43301 | -122.45923 | 4064 ft | 259 kts | 298° |
| 2026-05-08 06:32 | 47.44222 | -122.48235 | 4611 ft | 261 kts | 298° |
| 2026-05-08 06:32 | 47.45157 | -122.50557 | 5138 ft | 263 kts | 298° |
| 2026-05-08 06:32 | 47.46101 | -122.52877 | 5749 ft | 263 kts | 298° |
| 2026-05-08 06:33 | 47.47047 | -122.55179 | 6419 ft | 262 kts | 298° |
| 2026-05-08 06:33 | 47.48003 | -122.57470 | 6989 ft | 263 kts | 300° |
| 2026-05-08 06:33 | 47.48991 | -122.59779 | 7494 ft | 268 kts | 301° |
| 2026-05-08 06:33 | 47.49993 | -122.62119 | 8048 ft | 271 kts | 300° |
| 2026-05-08 06:34 | 47.51003 | -122.64498 | 8589 ft | 275 kts | 300° |
| 2026-05-08 06:34 | 47.52006 | -122.66887 | 9140 ft | 278 kts | 300° |
| 2026-05-08 06:34 | 47.53025 | -122.69335 | 9692 ft | 281 kts | 300° |
| 2026-05-08 06:34 | 47.54051 | -122.71819 | 10191 ft | 286 kts | 300° |
| 2026-05-08 06:35 | 47.55114 | -122.74404 | 10449 ft | 300 kts | 300° |
| 2026-05-08 06:35 | 47.56224 | -122.77111 | 10681 ft | 314 kts | 300° |
| 2026-05-08 06:35 | 47.57382 | -122.79936 | 10922 ft | 327 kts | 300° |
| 2026-05-08 06:35 | 47.58588 | -122.82876 | 11166 ft | 340 kts | 300° |
| 2026-05-08 06:36 | 47.59838 | -122.85925 | 11377 ft | 352 kts | 300° |
| 2026-05-08 06:36 | 47.61132 | -122.89081 | 11616 ft | 364 kts | 300° |
| 2026-05-08 06:36 | 47.62466 | -122.92338 | 11823 ft | 375 kts | 300° |
| 2026-05-08 06:36 | 47.63836 | -122.95684 | 12118 ft | 382 kts | 300° |
| 2026-05-08 06:37 | 47.65222 | -122.99075 | 12540 ft | 386 kts | 300° |
| 2026-05-08 06:37 | 47.66616 | -123.02490 | 12974 ft | 388 kts | 300° |
| 2026-05-08 06:37 | 47.68022 | -123.05940 | 13409 ft | 391 kts | 300° |
| 2026-05-08 06:37 | 47.69411 | -123.09366 | 13864 ft | 393 kts | 300° |
| 2026-05-08 06:38 | 47.70829 | -123.12860 | 14264 ft | 395 kts | 300° |
| 2026-05-08 06:38 | 47.72253 | -123.16366 | 14668 ft | 397 kts | 300° |
| 2026-05-08 06:38 | 47.73673 | -123.19892 | 15070 ft | 398 kts | 299° |
| 2026-05-08 06:38 | 47.75100 | -123.23430 | 15427 ft | 400 kts | 299° |
| 2026-05-08 06:39 | 47.76539 | -123.26949 | 16069 ft | 390 kts | 300° |
| 2026-05-08 06:39 | 47.77944 | -123.30404 | 16634 ft | 392 kts | 298° |
| 2026-05-08 06:39 | 47.79349 | -123.33931 | 16820 ft | 401 kts | 298° |
| 2026-05-08 06:39 | 47.80788 | -123.37521 | 17097 ft | 406 kts | 299° |
| 2026-05-08 06:40 | 47.82249 | -123.41134 | 17455 ft | 408 kts | 299° |
| 2026-05-08 06:40 | 47.83695 | -123.44718 | 17882 ft | 410 kts | 298° |
| 2026-05-08 06:40 | 47.85179 | -123.48413 | 18313 ft | 411 kts | 298° |
| 2026-05-08 06:40 | 47.86646 | -123.52078 | 18677 ft | 413 kts | 298° |
| 2026-05-08 06:41 | 47.88120 | -123.55769 | 19003 ft | 416 kts | 298° |
| 2026-05-08 06:41 | 47.89597 | -123.59443 | 19294 ft | 420 kts | 298° |
| 2026-05-08 06:41 | 47.91096 | -123.63192 | 19630 ft | 422 kts | 298° |
| 2026-05-08 06:41 | 47.92601 | -123.66982 | 19983 ft | 425 kts | 298° |
| 2026-05-08 06:42 | 47.94108 | -123.70785 | 20316 ft | 427 kts | 298° |
| 2026-05-08 06:42 | 47.95625 | -123.74612 | 20649 ft | 430 kts | 298° |
| 2026-05-08 06:42 | 47.97151 | -123.78470 | 20986 ft | 432 kts | 298° |
| 2026-05-08 06:42 | 47.98683 | -123.82346 | 21327 ft | 435 kts | 298° |
| 2026-05-08 06:43 | 48.00221 | -123.86252 | 21672 ft | 438 kts | 298° |
| 2026-05-08 06:43 | 48.01772 | -123.90186 | 22020 ft | 441 kts | 298° |
| 2026-05-08 06:43 | 48.03332 | -123.94143 | 22322 ft | 444 kts | 298° |
| 2026-05-08 06:43 | 48.04907 | -123.98140 | 22634 ft | 447 kts | 298° |
| 2026-05-08 06:44 | 48.06487 | -124.02155 | 22984 ft | 449 kts | 298° |
| 2026-05-08 06:44 | 48.08077 | -124.06202 | 23308 ft | 452 kts | 298° |
| 2026-05-08 06:44 | 48.09675 | -124.10277 | 23638 ft | 455 kts | 298° |
| 2026-05-08 06:44 | 48.11282 | -124.14382 | 23941 ft | 457 kts | 298° |
| 2026-05-08 06:45 | 48.12868 | -124.18439 | 24281 ft | 459 kts | 298° |
| 2026-05-08 06:45 | 48.14480 | -124.22572 | 24635 ft | 459 kts | 298° |
| 2026-05-08 06:45 | 48.16093 | -124.26715 | 24984 ft | 461 kts | 298° |
| 2026-05-08 06:45 | 48.17706 | -124.30865 | 25314 ft | 462 kts | 298° |
| 2026-05-08 06:46 | 48.19321 | -124.35030 | 25638 ft | 463 kts | 298° |
| 2026-05-08 06:46 | 48.20947 | -124.39227 | 25972 ft | 465 kts | 298° |
| 2026-05-08 06:46 | 48.22575 | -124.43432 | 26295 ft | 466 kts | 297° |
| 2026-05-08 06:46 | 48.24201 | -124.47643 | 26635 ft | 468 kts | 297° |
| 2026-05-08 06:47 | 48.25831 | -124.51870 | 26938 ft | 469 kts | 297° |
| 2026-05-08 06:47 | 48.27441 | -124.56129 | 27255 ft | 469 kts | 295° |
| 2026-05-08 06:47 | 48.28777 | -124.60594 | 27530 ft | 469 kts | 288° |
| 2026-05-08 06:47 | 48.29691 | -124.65279 | 27827 ft | 468 kts | 279° |
| 2026-05-08 06:48 | 48.30201 | -124.70110 | 28070 ft | 468 kts | 274° |
| 2026-05-08 06:48 | 48.30461 | -124.74997 | 28328 ft | 469 kts | 271° |
| 2026-05-08 06:48 | 48.30585 | -124.79893 | 28612 ft | 469 kts | 269° |
| 2026-05-08 06:48 | 48.30652 | -124.84743 | 28885 ft | 470 kts | 269° |
| 2026-05-08 06:49 | 48.30708 | -124.89663 | 29216 ft | 470 kts | 269° |
| 2026-05-08 06:49 | 48.30773 | -124.94550 | 29654 ft | 467 kts | 269° |
| 2026-05-08 06:49 | 48.30851 | -124.99415 | 30061 ft | 465 kts | 269° |
| 2026-05-08 06:49 | 48.30940 | -125.04261 | 30399 ft | 464 kts | 269° |
| 2026-05-08 06:50 | 48.31036 | -125.09102 | 30663 ft | 463 kts | 269° |
| 2026-05-08 06:50 | 48.31134 | -125.13943 | 30926 ft | 463 kts | 269° |
| 2026-05-08 06:50 | 48.31232 | -125.18784 | 31197 ft | 462 kts | 269° |
| 2026-05-08 06:50 | 48.31328 | -125.23614 | 31403 ft | 464 kts | 269° |
| 2026-05-08 06:51 | 48.31421 | -125.28470 | 31600 ft | 464 kts | 269° |
| 2026-05-08 06:51 | 48.31512 | -125.33306 | 31880 ft | 463 kts | 269° |
| 2026-05-08 06:51 | 48.31601 | -125.38143 | 32120 ft | 463 kts | 269° |
| 2026-05-08 06:51 | 48.31687 | -125.42967 | 32382 ft | 462 kts | 269° |
| 2026-05-08 06:52 | 48.31771 | -125.47783 | 32623 ft | 461 kts | 269° |
| 2026-05-08 06:52 | 48.31853 | -125.52598 | 32854 ft | 460 kts | 269° |
| 2026-05-08 06:52 | 48.31931 | -125.57335 | 33096 ft | 459 kts | 269° |
| 2026-05-08 06:52 | 48.32009 | -125.62190 | 33317 ft | 458 kts | 268° |
| 2026-05-08 06:53 | 48.32083 | -125.66910 | 33535 ft | 458 kts | 268° |
| 2026-05-08 06:53 | 48.32156 | -125.71686 | 33750 ft | 457 kts | 268° |
| 2026-05-08 06:53 | 48.32227 | -125.76449 | 33945 ft | 457 kts | 268° |
| 2026-05-08 06:53 | 48.32296 | -125.81231 | 34078 ft | 458 kts | 268° |
| 2026-05-08 06:54 | 48.32427 | -125.90854 | 34100 ft | 463 kts | 268° |
| 2026-05-08 06:54 | 48.32553 | -126.00520 | 34100 ft | 463 kts | 268° |
| 2026-05-08 06:55 | 48.32672 | -126.10197 | 34100 ft | 462 kts | 268° |
| 2026-05-08 06:55 | 48.32781 | -126.19799 | 34099 ft | 462 kts | 267° |
| 2026-05-08 06:56 | 48.32882 | -126.29465 | 34099 ft | 462 kts | 267° |
| 2026-05-08 06:56 | 48.32975 | -126.39124 | 34097 ft | 462 kts | 267° |
| 2026-05-08 06:57 | 48.33060 | -126.48783 | 34097 ft | 462 kts | 267° |
| 2026-05-08 06:57 | 48.33137 | -126.58442 | 34097 ft | 462 kts | 267° |
| 2026-05-08 06:58 | 48.33206 | -126.68104 | 34097 ft | 462 kts | 267° |
| 2026-05-08 06:58 | 48.33267 | -126.77695 | 34096 ft | 462 kts | 267° |
| 2026-05-08 06:59 | 48.33320 | -126.87371 | 34096 ft | 464 kts | 266° |
| 2026-05-08 06:59 | 48.33364 | -126.97094 | 34096 ft | 465 kts | 266° |
| 2026-05-08 07:00 | 48.33402 | -127.06822 | 34098 ft | 466 kts | 266° |
| 2026-05-08 07:00 | 48.33431 | -127.16543 | 34095 ft | 465 kts | 266° |
| 2026-05-08 07:01 | 48.33451 | -127.26271 | 34098 ft | 465 kts | 266° |
| 2026-05-08 07:01 | 48.33463 | -127.35999 | 34108 ft | 465 kts | 266° |
| 2026-05-08 07:02 | 48.33466 | -127.45756 | 34102 ft | 468 kts | 265° |
| 2026-05-08 07:02 | 48.33462 | -127.55549 | 34097 ft | 469 kts | 265° |
| 2026-05-08 07:03 | 48.33450 | -127.65358 | 34096 ft | 469 kts | 265° |
| 2026-05-08 07:03 | 48.33429 | -127.75101 | 34092 ft | 469 kts | 265° |
| 2026-05-08 07:04 | 48.33400 | -127.84910 | 34082 ft | 469 kts | 264° |
| 2026-05-08 07:04 | 48.33365 | -127.94728 | 34095 ft | 470 kts | 264° |
| 2026-05-08 07:05 | 48.34165 | -128.04598 | 34089 ft | 481 kts | 276° |
| 2026-05-08 07:05 | 48.35726 | -128.14359 | 34094 ft | 483 kts | 278° |
| 2026-05-08 07:06 | 48.37417 | -128.24161 | 34084 ft | 484 kts | 278° |
| 2026-05-08 07:06 | 48.39101 | -128.33964 | 34086 ft | 484 kts | 278° |
| 2026-05-08 07:07 | 48.40757 | -128.43784 | 34082 ft | 484 kts | 278° |
| 2026-05-08 07:07 | 48.42396 | -128.53612 | 34084 ft | 484 kts | 278° |
| 2026-05-08 07:08 | 48.44024 | -128.63446 | 34091 ft | 485 kts | 277° |
| 2026-05-08 07:08 | 48.45651 | -128.73344 | 34071 ft | 487 kts | 277° |
| 2026-05-08 07:09 | 48.47275 | -128.83250 | 34069 ft | 487 kts | 277° |
| 2026-05-08 07:09 | 48.48891 | -128.93167 | 34064 ft | 487 kts | 277° |
| 2026-05-08 07:10 | 48.50499 | -129.03099 | 34070 ft | 487 kts | 277° |
| 2026-05-08 07:10 | 48.52088 | -129.12971 | 34068 ft | 487 kts | 277° |
| 2026-05-08 07:11 | 48.53678 | -129.22908 | 34064 ft | 487 kts | 277° |
| 2026-05-08 07:11 | 48.55257 | -129.32844 | 34064 ft | 487 kts | 277° |
| 2026-05-08 07:12 | 48.56829 | -129.42790 | 34062 ft | 487 kts | 276° |
| 2026-05-08 07:12 | 48.58131 | -129.51074 | 34055 ft | 488 kts | 276° |
| 2026-05-08 07:13 | 48.59691 | -129.61058 | 34058 ft | 488 kts | 276° |
| 2026-05-08 07:13 | 48.61243 | -129.71055 | 34050 ft | 489 kts | 276° |
| 2026-05-08 07:14 | 48.62788 | -129.81062 | 34048 ft | 489 kts | 276° |
| 2026-05-08 07:14 | 48.64325 | -129.91078 | 34048 ft | 489 kts | 276° |
| 2026-05-08 07:15 | 48.65844 | -130.01042 | 34040 ft | 489 kts | 276° |
| 2026-05-08 07:15 | 48.67362 | -130.11058 | 34039 ft | 489 kts | 276° |
| 2026-05-08 07:16 | 48.68873 | -130.21106 | 34037 ft | 491 kts | 275° |
| 2026-05-08 07:16 | 48.70382 | -130.31198 | 34031 ft | 492 kts | 275° |
| 2026-05-08 07:17 | 48.71885 | -130.41308 | 34030 ft | 492 kts | 275° |
| 2026-05-08 07:17 | 48.73379 | -130.51420 | 34031 ft | 492 kts | 275° |
| 2026-05-08 07:18 | 48.74865 | -130.61555 | 34026 ft | 493 kts | 275° |
| 2026-05-08 07:18 | 48.76335 | -130.71646 | 34026 ft | 494 kts | 275° |
| 2026-05-08 07:19 | 48.77806 | -130.81810 | 34026 ft | 494 kts | 275° |
| 2026-05-08 07:19 | 48.79272 | -130.92002 | 34026 ft | 494 kts | 275° |
| 2026-05-08 07:20 | 48.80729 | -131.02205 | 34017 ft | 495 kts | 275° |
| 2026-05-08 07:20 | 48.82173 | -131.12384 | 34024 ft | 496 kts | 274° |
| 2026-05-08 07:21 | 48.83618 | -131.22643 | 34019 ft | 497 kts | 274° |
| 2026-05-08 07:21 | 48.85055 | -131.32902 | 34019 ft | 496 kts | 274° |
| 2026-05-08 07:22 | 48.86482 | -131.43169 | 34014 ft | 496 kts | 274° |
| 2026-05-08 07:22 | 48.87898 | -131.53436 | 34012 ft | 496 kts | 274° |
| 2026-05-08 07:23 | 48.89306 | -131.63712 | 34016 ft | 497 kts | 274° |
| 2026-05-08 07:23 | 48.90708 | -131.74012 | 34013 ft | 498 kts | 273° |
| 2026-05-08 07:24 | 48.92095 | -131.84281 | 34007 ft | 498 kts | 273° |
| 2026-05-08 07:24 | 48.93479 | -131.94598 | 34006 ft | 498 kts | 273° |
| 2026-05-08 07:25 | 48.94856 | -132.04935 | 34006 ft | 498 kts | 273° |
| 2026-05-08 07:26 | 48.96902 | -132.20447 | 33997 ft | 499 kts | 272° |
| 2026-05-08 07:26 | 48.98257 | -132.30808 | 33996 ft | 499 kts | 272° |
| 2026-05-08 07:27 | 48.99602 | -132.41172 | 33993 ft | 499 kts | 272° |
| 2026-05-08 07:27 | 49.01054 | -132.51532 | 33991 ft | 503 kts | 275° |
| 2026-05-08 07:28 | 49.02822 | -132.61808 | 33993 ft | 506 kts | 276° |
| 2026-05-08 07:28 | 49.04626 | -132.72176 | 33972 ft | 506 kts | 276° |
| 2026-05-08 07:29 | 49.06370 | -132.82550 | 33974 ft | 505 kts | 275° |
| 2026-05-08 07:29 | 49.08078 | -132.92951 | 33978 ft | 505 kts | 275° |
| 2026-05-08 07:30 | 49.09768 | -133.03348 | 33983 ft | 505 kts | 275° |
| 2026-05-08 07:30 | 49.11450 | -133.13757 | 33960 ft | 505 kts | 275° |
| 2026-05-08 07:31 | 49.13126 | -133.24178 | 33951 ft | 505 kts | 275° |
| 2026-05-08 07:31 | 49.14793 | -133.34600 | 33944 ft | 505 kts | 275° |
| 2026-05-08 07:32 | 49.16450 | -133.45026 | 33944 ft | 505 kts | 275° |
| 2026-05-08 07:32 | 49.18086 | -133.55389 | 33938 ft | 505 kts | 275° |
| 2026-05-08 07:33 | 49.19726 | -133.65849 | 33934 ft | 505 kts | 275° |
| 2026-05-08 07:33 | 49.21353 | -133.76291 | 33927 ft | 505 kts | 275° |
| 2026-05-08 07:34 | 49.22972 | -133.86744 | 33929 ft | 505 kts | 275° |
| 2026-05-08 07:34 | 49.24581 | -133.97204 | 33922 ft | 505 kts | 275° |
| 2026-05-08 07:35 | 49.26175 | -134.07628 | 33920 ft | 505 kts | 275° |
| 2026-05-08 07:35 | 49.27765 | -134.18099 | 33927 ft | 505 kts | 275° |
| 2026-05-08 07:36 | 49.29345 | -134.28573 | 33913 ft | 505 kts | 275° |
| 2026-05-08 07:36 | 49.30918 | -134.39068 | 33905 ft | 505 kts | 274° |
| 2026-05-08 07:37 | 49.32482 | -134.49571 | 33920 ft | 505 kts | 275° |
| 2026-05-08 07:37 | 49.34033 | -134.60067 | 33892 ft | 505 kts | 275° |
| 2026-05-08 07:38 | 49.35580 | -134.70597 | 33884 ft | 505 kts | 274° |
| 2026-05-08 07:38 | 49.37106 | -134.81061 | 33884 ft | 505 kts | 274° |
| 2026-05-08 07:39 | 49.38631 | -134.91589 | 33870 ft | 505 kts | 274° |
| 2026-05-08 07:39 | 49.40146 | -135.02115 | 33870 ft | 505 kts | 274° |
| 2026-05-08 07:40 | 49.41650 | -135.12654 | 33872 ft | 505 kts | 275° |
| 2026-05-08 07:40 | 49.43144 | -135.23188 | 33869 ft | 505 kts | 275° |
| 2026-05-08 07:41 | 49.44622 | -135.33675 | 33855 ft | 505 kts | 275° |
| 2026-05-08 07:41 | 49.46098 | -135.44222 | 33879 ft | 505 kts | 275° |
| 2026-05-08 07:42 | 49.47566 | -135.54794 | 33854 ft | 505 kts | 275° |
| 2026-05-08 07:42 | 49.49024 | -135.65369 | 33839 ft | 505 kts | 275° |
| 2026-05-08 07:43 | 49.50474 | -135.75955 | 33835 ft | 505 kts | 275° |
| 2026-05-08 07:43 | 49.51912 | -135.86536 | 33834 ft | 505 kts | 275° |
| 2026-05-08 07:44 | 49.53340 | -135.97122 | 33854 ft | 505 kts | 275° |
| 2026-05-08 07:44 | 49.54757 | -136.07697 | 33816 ft | 504 kts | 275° |
| 2026-05-08 07:45 | 49.56163 | -136.18271 | 33818 ft | 504 kts | 275° |
| 2026-05-08 07:45 | 49.57557 | -136.28846 | 33809 ft | 503 kts | 275° |
| 2026-05-08 07:46 | 49.58933 | -136.39350 | 33802 ft | 503 kts | 275° |
| 2026-05-08 07:46 | 49.60308 | -136.49928 | 33797 ft | 504 kts | 275° |
| 2026-05-08 07:47 | 49.61675 | -136.60529 | 33798 ft | 504 kts | 275° |
| 2026-05-08 07:47 | 49.63034 | -136.71143 | 33768 ft | 504 kts | 275° |
| 2026-05-08 07:48 | 49.64384 | -136.81769 | 33785 ft | 504 kts | 275° |
| 2026-05-08 07:48 | 49.65721 | -136.92382 | 33763 ft | 503 kts | 275° |
| 2026-05-08 07:49 | 49.67049 | -137.02997 | 33765 ft | 504 kts | 275° |
| 2026-05-08 07:49 | 49.68367 | -137.13619 | 33754 ft | 504 kts | 275° |
| 2026-05-08 07:50 | 49.69676 | -137.24253 | 33749 ft | 504 kts | 275° |
| 2026-05-08 07:50 | 49.70970 | -137.34844 | 33749 ft | 504 kts | 275° |
| 2026-05-08 07:51 | 49.72260 | -137.45495 | 33747 ft | 504 kts | 275° |
| 2026-05-08 07:51 | 49.73531 | -137.56075 | 33734 ft | 503 kts | 275° |
| 2026-05-08 07:52 | 49.74800 | -137.66724 | 33726 ft | 503 kts | 275° |
| 2026-05-08 07:52 | 49.76060 | -137.77378 | 33731 ft | 503 kts | 275° |
| 2026-05-08 07:53 | 49.77309 | -137.88034 | 33713 ft | 502 kts | 275° |
| 2026-05-08 07:53 | 49.78545 | -137.98669 | 33715 ft | 502 kts | 275° |
| 2026-05-08 07:54 | 49.79773 | -138.09319 | 33702 ft | 502 kts | 275° |
| 2026-05-08 07:54 | 49.80983 | -138.19900 | 33694 ft | 502 kts | 275° |
| 2026-05-08 07:55 | 49.82191 | -138.30558 | 33688 ft | 502 kts | 275° |
| 2026-05-08 07:55 | 49.83389 | -138.41224 | 33686 ft | 502 kts | 275° |
| 2026-05-08 07:56 | 49.84578 | -138.51893 | 33666 ft | 503 kts | 275° |
| 2026-05-08 07:56 | 49.85758 | -138.62581 | 33664 ft | 503 kts | 275° |
| 2026-05-08 07:57 | 49.86928 | -138.73271 | 33671 ft | 502 kts | 275° |
| 2026-05-08 07:57 | 49.88086 | -138.83947 | 33655 ft | 502 kts | 275° |
| 2026-05-08 07:58 | 49.89235 | -138.94634 | 33665 ft | 502 kts | 275° |
| 2026-05-08 07:58 | 49.90373 | -139.05322 | 33641 ft | 503 kts | 275° |
| 2026-05-08 07:59 | 49.91497 | -139.15964 | 33629 ft | 503 kts | 275° |
| 2026-05-08 07:59 | 49.92437 | -139.24948 | 33626 ft | 503 kts | 275° |
| 2026-05-08 08:00 | 49.93548 | -139.35649 | 33611 ft | 503 kts | 274° |
| 2026-05-08 08:00 | 49.94642 | -139.46288 | 33618 ft | 503 kts | 274° |
| 2026-05-08 08:01 | 49.95735 | -139.57019 | 33612 ft | 503 kts | 274° |
| 2026-05-08 08:01 | 49.96819 | -139.67759 | 33599 ft | 502 kts | 274° |
| 2026-05-08 08:02 | 49.97894 | -139.78506 | 33596 ft | 502 kts | 274° |
| 2026-05-08 08:02 | 49.98955 | -139.89236 | 33588 ft | 502 kts | 274° |
| 2026-05-08 08:03 | 50.00002 | -139.99916 | 33574 ft | 502 kts | 274° |
| 2026-05-08 08:03 | 50.01334 | -140.10604 | 33570 ft | 505 kts | 278° |
| 2026-05-08 08:04 | 50.02978 | -140.21230 | 33569 ft | 506 kts | 279° |
| 2026-05-08 08:04 | 50.04590 | -140.31867 | 33567 ft | 505 kts | 278° |
| 2026-05-08 08:05 | 50.06132 | -140.42531 | 33567 ft | 505 kts | 278° |
| 2026-05-08 08:05 | 50.07638 | -140.53213 | 33554 ft | 506 kts | 278° |
| 2026-05-08 08:06 | 50.09134 | -140.63915 | 33549 ft | 506 kts | 277° |
| 2026-05-08 08:06 | 50.10625 | -140.74634 | 33550 ft | 506 kts | 277° |
| 2026-05-08 08:07 | 50.12106 | -140.85357 | 33546 ft | 506 kts | 277° |
| 2026-05-08 08:07 | 50.13578 | -140.96086 | 33527 ft | 507 kts | 277° |
| 2026-05-08 08:08 | 50.15045 | -141.06866 | 33520 ft | 509 kts | 277° |
| 2026-05-08 08:08 | 50.16508 | -141.17686 | 33520 ft | 509 kts | 277° |
| 2026-05-08 08:09 | 50.17950 | -141.28434 | 33515 ft | 509 kts | 277° |
| 2026-05-08 08:09 | 50.19392 | -141.39255 | 33510 ft | 509 kts | 277° |
| 2026-05-08 08:10 | 50.20823 | -141.50097 | 33500 ft | 511 kts | 277° |
| 2026-05-08 08:10 | 50.22253 | -141.61000 | 33500 ft | 512 kts | 277° |
| 2026-05-08 08:11 | 50.23672 | -141.71902 | 33496 ft | 512 kts | 277° |
| 2026-05-08 08:11 | 50.25079 | -141.82798 | 33478 ft | 511 kts | 277° |
| 2026-05-08 08:12 | 50.26465 | -141.93619 | 33483 ft | 511 kts | 277° |
| 2026-05-08 08:12 | 50.27852 | -142.04538 | 33470 ft | 512 kts | 277° |
| 2026-05-08 08:13 | 50.29229 | -142.15463 | 33471 ft | 512 kts | 277° |
| 2026-05-08 08:13 | 50.30598 | -142.26404 | 33459 ft | 511 kts | 277° |
| 2026-05-08 08:14 | 50.31954 | -142.37329 | 33470 ft | 511 kts | 277° |
| 2026-05-08 08:14 | 50.33298 | -142.48260 | 33456 ft | 512 kts | 277° |
| 2026-05-08 08:15 | 50.34635 | -142.59204 | 33454 ft | 512 kts | 276° |
| 2026-05-08 08:15 | 50.35952 | -142.70095 | 33442 ft | 511 kts | 277° |
| 2026-05-08 08:16 | 50.37267 | -142.81043 | 33439 ft | 512 kts | 277° |
| 2026-05-08 08:16 | 50.38571 | -142.92004 | 33437 ft | 511 kts | 277° |
| 2026-05-08 08:17 | 50.39866 | -143.02964 | 33437 ft | 511 kts | 277° |
| 2026-05-08 08:17 | 50.41149 | -143.13938 | 33426 ft | 511 kts | 277° |
| 2026-05-08 08:18 | 50.42424 | -143.24916 | 33426 ft | 512 kts | 276° |
| 2026-05-08 08:18 | 50.43681 | -143.35847 | 33431 ft | 512 kts | 276° |
| 2026-05-08 08:19 | 50.44934 | -143.46849 | 33425 ft | 513 kts | 276° |
| 2026-05-08 08:19 | 50.46180 | -143.57882 | 33426 ft | 513 kts | 277° |
| 2026-05-08 08:20 | 50.47415 | -143.68892 | 33422 ft | 512 kts | 276° |